Time;durP1;ratioP1;P1;durP2;ratioP2;P2;SDS_P1;SDS_P2;PMS_P1;PMS_P2;Temp;Humidity;BMP_temperature;BMP_pressure;BME280_temperature;BME280_humidity;BME280_pressure;Samples;Min_cycle;Max_cycle;Signal;HPM_P1;HPM_P2
2023/05/29 00:01:08;;;;;;;6.22;3.38;;;14.90;99.90;;;;;;5053796;28;20480;-60
2023/05/29 00:03:34;;;;;;;6.38;3.50;;;15.00;99.90;;;;;;5061940;28;20044;-61
2023/05/29 00:06:02;;;;;;;8.20;3.40;;;14.90;99.90;;;;;;5049365;28;20033;-61
2023/05/29 00:08:28;;;;;;;8.85;3.92;;;14.70;99.90;;;;;;5059157;28;20053;-61
2023/05/29 00:10:54;;;;;;;9.02;3.90;;;14.70;99.90;;;;;;5050825;28;20578;-61
2023/05/29 00:13:19;;;;;;;7.07;3.50;;;14.60;99.90;;;;;;5052634;28;20029;-61
2023/05/29 00:15:46;;;;;;;6.90;3.42;;;14.60;99.90;;;;;;5049964;28;21075;-61
2023/05/29 00:18:11;;;;;;;8.00;3.45;;;14.60;99.90;;;;;;5049542;28;20108;-60
2023/05/29 00:20:37;;;;;;;7.93;3.15;;;14.40;99.90;;;;;;5059682;28;20404;-61
2023/05/29 00:23:05;;;;;;;6.60;2.90;;;14.40;99.90;;;;;;5055657;28;20029;-61
2023/05/29 00:25:31;;;;;;;6.55;3.60;;;14.30;99.90;;;;;;5053847;28;20384;-61
2023/05/29 00:27:57;;;;;;;8.68;3.42;;;14.30;99.90;;;;;;5060286;28;20033;-61
2023/05/29 00:30:23;;;;;;;7.55;3.67;;;14.20;99.90;;;;;;5054140;28;20085;-61
2023/05/29 00:32:49;;;;;;;6.97;3.38;;;14.20;99.90;;;;;;5054802;28;20353;-61
2023/05/29 00:35:15;;;;;;;7.90;3.70;;;14.30;99.90;;;;;;5060828;28;20045;-61
2023/05/29 00:37:41;;;;;;;10.27;3.65;;;14.30;99.90;;;;;;5059442;28;20532;-63
2023/05/29 00:40:07;;;;;;;8.07;3.50;;;14.10;99.90;;;;;;5051102;28;20116;-61
2023/05/29 00:42:33;;;;;;;6.65;3.50;;;14.10;99.90;;;;;;5060088;28;20132;-61
2023/05/29 00:44:58;;;;;;;7.35;3.60;;;14.10;99.90;;;;;;5055537;28;20115;-61
2023/05/29 00:47:24;;;;;;;5.80;3.40;;;14.10;99.90;;;;;;5057903;28;20036;-61
2023/05/29 00:49:51;;;;;;;7.00;3.97;;;14.00;99.90;;;;;;5056874;28;20062;-61
2023/05/29 00:52:18;;;;;;;6.25;3.78;;;13.90;99.90;;;;;;5051921;28;20467;-61
2023/05/29 00:54:45;;;;;;;6.72;3.67;;;14.00;99.90;;;;;;5056853;28;20440;-61
2023/05/29 00:57:13;;;;;;;4.90;3.58;;;13.90;99.90;;;;;;5052110;28;20236;-61
2023/05/29 00:59:39;;;;;;;6.70;3.80;;;13.70;99.90;;;;;;5055231;28;20461;-61
2023/05/29 01:02:05;;;;;;;6.80;3.80;;;13.60;99.90;;;;;;5054136;28;20082;-61
2023/05/29 01:04:34;;;;;;;7.45;3.88;;;13.70;99.90;;;;;;5052004;28;20365;-61
2023/05/29 01:07:02;;;;;;;7.95;4.18;;;13.60;99.90;;;;;;5058315;28;20086;-56
2023/05/29 01:09:29;;;;;;;8.25;3.72;;;13.50;99.90;;;;;;5055372;28;20063;-56
2023/05/29 01:12:15;;;;;;;8.50;4.18;;;13.60;99.90;;;;;;5055963;28;20045;-56
2023/05/29 01:15:18;;;;;;;9.93;4.82;;;13.40;99.90;;;;;;5056495;28;20040;-55
2023/05/29 01:18:00;;;;;;;7.15;4.20;;;13.30;99.90;;;;;;5057447;28;20127;-56
2023/05/29 01:20:32;;;;;;;11.70;4.35;;;13.30;99.90;;;;;;5054824;28;20523;-56
2023/05/29 01:23:01;;;;;;;10.35;4.47;;;13.30;99.90;;;;;;5060386;28;20391;-56
2023/05/29 01:26:05;;;;;;;7.63;4.47;;;13.20;99.90;;;;;;5055148;28;20064;-56
2023/05/29 01:28:39;;;;;;;8.55;4.55;;;13.20;99.90;;;;;;5055848;28;20039;-56
2023/05/29 01:31:07;;;;;;;10.82;4.25;;;13.10;99.90;;;;;;5053153;28;20127;-56
2023/05/29 01:33:33;;;;;;;12.10;4.10;;;13.00;99.90;;;;;;5056337;28;20027;-55
2023/05/29 01:35:58;;;;;;;10.60;3.83;;;13.00;99.90;;;;;;5058558;28;20029;-57
2023/05/29 01:38:24;;;;;;;10.40;3.55;;;12.80;99.90;;;;;;5050753;28;20427;-55
2023/05/29 01:40:50;;;;;;;9.35;3.88;;;12.80;99.90;;;;;;5056612;28;20461;-56
2023/05/29 01:43:16;;;;;;;5.90;3.10;;;12.90;99.90;;;;;;5055962;28;20029;-56
2023/05/29 01:45:42;;;;;;;7.97;3.83;;;12.70;99.90;;;;;;5060166;28;20047;-56
2023/05/29 01:48:08;;;;;;;9.07;3.03;;;12.80;99.90;;;;;;5050673;28;20400;-55
2023/05/29 01:50:34;;;;;;;8.63;3.50;;;12.50;99.90;;;;;;5056149;28;20029;-56
2023/05/29 01:53:00;;;;;;;9.68;3.63;;;12.70;99.90;;;;;;5063022;28;20047;-56
2023/05/29 01:55:26;;;;;;;7.68;2.42;;;12.60;99.90;;;;;;5054247;28;20029;-56
2023/05/29 01:57:52;;;;;;;10.38;3.25;;;12.50;99.90;;;;;;5061699;28;20029;-56
2023/05/29 02:00:18;;;;;;;13.68;3.60;;;12.40;99.90;;;;;;5055175;28;20029;-55
2023/05/29 02:02:44;;;;;;;8.60;3.05;;;12.50;99.90;;;;;;5056564;28;20032;-56
2023/05/29 02:05:10;;;;;;;9.75;3.15;;;12.50;99.90;;;;;;5052693;28;20502;-55
2023/05/29 02:07:38;;;;;;;12.18;3.47;;;12.50;99.90;;;;;;5057627;28;20051;-61
2023/05/29 02:10:05;;;;;;;9.93;4.00;;;12.50;99.90;;;;;;5058655;28;20112;-60
2023/05/29 02:12:30;;;;;;;11.07;3.40;;;12.40;99.90;;;;;;5055505;28;20174;-61
2023/05/29 02:14:56;;;;;;;10.55;3.60;;;12.30;99.90;;;;;;5057348;28;20028;-61
2023/05/29 02:17:22;;;;;;;18.63;3.97;;;12.30;99.90;;;;;;5059346;28;20537;-61
2023/05/29 02:19:48;;;;;;;14.05;4.00;;;12.20;99.90;;;;;;5058117;28;20047;-61
2023/05/29 02:22:13;;;;;;;10.40;3.85;;;12.10;99.90;;;;;;5052243;28;20412;-61
2023/05/29 02:24:39;;;;;;;11.07;3.63;;;12.10;99.90;;;;;;5056384;28;20033;-61
2023/05/29 02:27:05;;;;;;;13.85;3.58;;;12.20;99.90;;;;;;5047527;28;20353;-61
2023/05/29 02:29:30;;;;;;;12.45;3.67;;;12.10;99.90;;;;;;5052855;28;20695;-60
2023/05/29 02:31:56;;;;;;;12.50;3.70;;;11.90;99.90;;;;;;5046473;28;20040;-60
2023/05/29 02:34:25;;;;;;;17.35;4.40;;;11.90;99.90;;;;;;5050870;28;20107;-61
2023/05/29 02:36:54;;;;;;;13.75;4.15;;;11.90;99.90;;;;;;5055332;28;20609;-61
2023/05/29 02:39:20;;;;;;;13.90;4.10;;;11.90;99.90;;;;;;5053354;28;20028;-61
2023/05/29 02:41:46;;;;;;;8.65;3.35;;;11.80;99.90;;;;;;5054206;28;20048;-60
2023/05/29 02:44:12;;;;;;;13.13;3.67;;;;;;;;;;5050593;28;20083;-61
2023/05/29 02:46:37;;;;;;;15.93;3.65;;;12.00;99.90;;;;;;5046168;28;20051;-61
2023/05/29 02:49:03;;;;;;;15.13;3.63;;;11.80;99.90;;;;;;5050504;28;20390;-60
2023/05/29 02:51:29;;;;;;;18.73;4.13;;;12.00;99.90;;;;;;5052688;28;20036;-61
2023/05/29 02:53:55;;;;;;;9.95;3.45;;;11.80;99.90;;;;;;5045045;28;20059;-61
2023/05/29 02:56:23;;;;;;;16.38;3.75;;;11.80;99.90;;;;;;5044467;28;20239;-60
2023/05/29 02:58:50;;;;;;;13.93;3.55;;;11.70;99.90;;;;;;5057256;28;20432;-61
2023/05/29 03:01:16;;;;;;;15.05;4.25;;;11.80;99.90;;;;;;5046746;28;20033;-61
2023/05/29 03:03:41;;;;;;;15.95;4.25;;;11.70;99.90;;;;;;5051442;28;20393;-60
2023/05/29 03:06:07;;;;;;;16.40;4.15;;;11.70;99.90;;;;;;5047209;28;20190;-60
2023/05/29 03:08:35;;;;;;;14.15;4.05;;;11.60;99.90;;;;;;5052828;28;20512;-61
2023/05/29 03:11:00;;;;;;;13.90;3.42;;;11.80;99.90;;;;;;5052106;28;20531;-61
2023/05/29 03:13:26;;;;;;;15.82;4.10;;;11.70;99.90;;;;;;5054466;28;20064;-61
2023/05/29 03:15:56;;;;;;;16.05;3.92;;;11.60;99.90;;;;;;5052940;28;20416;-61
2023/05/29 03:18:22;;;;;;;12.68;3.92;;;11.50;99.90;;;;;;5055856;28;20526;-61
2023/05/29 03:20:49;;;;;;;18.13;3.50;;;11.50;99.90;;;;;;5052423;28;20054;-60
2023/05/29 03:23:14;;;;;;;10.82;3.40;;;11.50;99.90;;;;;;5054743;28;20033;-60
2023/05/29 03:25:40;;;;;;;19.33;3.90;;;11.50;99.90;;;;;;5060799;28;20029;-61
2023/05/29 03:28:05;;;;;;;14.80;3.58;;;11.40;99.90;;;;;;5050735;28;20025;-60
2023/05/29 03:30:31;;;;;;;12.32;3.28;;;11.40;99.90;;;;;;5057053;28;20059;-61
2023/05/29 03:32:56;;;;;;;15.07;3.72;;;11.40;99.90;;;;;;5057512;28;20036;-61
2023/05/29 03:35:22;;;;;;;17.38;3.42;;;11.40;99.90;;;;;;5053959;28;20052;-61
2023/05/29 03:37:47;;;;;;;13.43;3.95;;;11.40;99.90;;;;;;5054356;28;20036;-61
2023/05/29 03:40:13;;;;;;;13.23;3.40;;;11.20;99.90;;;;;;5051440;28;20083;-61
2023/05/29 03:42:39;;;;;;;14.80;3.22;;;11.30;99.90;;;;;;5056698;28;20040;-61
2023/05/29 03:45:04;;;;;;;15.68;3.78;;;11.10;99.90;;;;;;5057771;28;20047;-62
2023/05/29 03:47:30;;;;;;;15.45;3.67;;;11.00;99.90;;;;;;5055400;28;20037;-60
2023/05/29 03:49:56;;;;;;;16.75;3.45;;;11.20;99.90;;;;;;5059783;28;20022;-60
2023/05/29 03:52:21;;;;;;;16.38;3.97;;;11.00;99.90;;;;;;5051834;28;20029;-61
2023/05/29 03:54:47;;;;;;;14.38;3.38;;;11.00;99.90;;;;;;5054144;28;20039;-60
2023/05/29 03:57:13;;;;;;;16.95;4.07;;;11.10;99.90;;;;;;5055808;28;20236;-61
2023/05/29 03:59:38;;;;;;;17.17;3.80;;;11.30;99.90;;;;;;5057194;28;20122;-60
2023/05/29 04:02:04;;;;;;;20.52;3.50;;;11.20;99.90;;;;;;5053001;28;20029;-60
2023/05/29 04:04:30;;;;;;;14.90;3.88;;;11.10;99.90;;;;;;5053630;28;20052;-61
2023/05/29 04:06:56;;;;;;;16.33;4.35;;;11.00;99.90;;;;;;5059561;28;20036;-60
2023/05/29 04:09:22;;;;;;;13.75;3.85;;;11.00;99.90;;;;;;5057486;28;20037;-61
2023/05/29 04:11:47;;;;;;;15.10;3.58;;;11.20;99.90;;;;;;5062361;28;20150;-60
2023/05/29 04:14:13;;;;;;;20.02;3.90;;;11.10;99.90;;;;;;5058363;28;20036;-61
2023/05/29 04:16:38;;;;;;;17.10;4.38;;;11.20;99.90;;;;;;5057285;28;20036;-60
2023/05/29 04:19:04;;;;;;;16.25;3.83;;;11.40;99.90;;;;;;5053237;28;20029;-60
2023/05/29 04:21:32;;;;;;;16.70;3.70;;;11.80;99.90;;;;;;5055387;28;20032;-61
2023/05/29 04:23:58;;;;;;;18.88;3.78;;;10.90;99.90;;;;;;5054792;28;20449;-61
2023/05/29 04:26:26;;;;;;;15.13;3.72;;;11.20;99.90;;;;;;5058832;28;20036;-60
2023/05/29 04:28:57;;;;;;;22.70;4.22;;;11.10;99.90;;;;;;5057587;28;20373;-60
2023/05/29 04:31:26;;;;;;;17.70;3.88;;;11.20;99.90;;;;;;5058648;28;20131;-61
2023/05/29 04:33:55;;;;;;;20.67;4.00;;;11.20;99.90;;;;;;5060776;28;20040;-62
2023/05/29 04:36:25;;;;;;;17.63;4.07;;;11.30;99.90;;;;;;5050841;28;20493;-60
2023/05/29 04:38:52;;;;;;;16.75;3.33;;;11.40;99.90;;;;;;5053781;28;20123;-61
2023/05/29 04:41:18;;;;;;;19.90;3.88;;;11.30;99.90;;;;;;5056200;28;20032;-60
2023/05/29 04:43:43;;;;;;;21.73;4.38;;;11.40;99.90;;;;;;5055552;28;20525;-60
2023/05/29 04:46:12;;;;;;;19.88;4.25;;;11.50;99.90;;;;;;5054088;28;20033;-61
2023/05/29 04:48:40;;;;;;;17.10;4.05;;;11.40;99.90;;;;;;5060152;28;20029;-60
2023/05/29 04:51:06;;;;;;;23.67;4.95;;;11.30;99.90;;;;;;5055517;28;20048;-61
2023/05/29 04:53:32;;;;;;;14.77;3.80;;;11.20;99.90;;;;;;5055655;28;20036;-61
2023/05/29 04:55:57;;;;;;;17.85;4.07;;;11.40;99.90;;;;;;5054848;28;20389;-62
2023/05/29 04:58:26;;;;;;;17.17;4.05;;;11.50;99.90;;;;;;5059841;28;20155;-61
2023/05/29 05:00:51;;;;;;;18.42;4.63;;;11.50;99.90;;;;;;5056890;28;20040;-61
2023/05/29 05:03:17;;;;;;;16.73;3.97;;;11.50;99.90;;;;;;5055542;28;20512;-61
2023/05/29 05:05:43;;;;;;;22.70;4.30;;;11.40;99.90;;;;;;5055357;28;20028;-61
2023/05/29 05:08:11;;;;;;;16.58;4.50;;;11.30;99.90;;;;;;5057668;28;20025;-55
2023/05/29 05:10:37;;;;;;;20.80;4.00;;;11.50;99.90;;;;;;5055447;28;20231;-55
2023/05/29 05:13:03;;;;;;;25.00;4.30;;;11.50;99.90;;;;;;5054497;28;20033;-55
2023/05/29 05:15:28;;;;;;;16.65;4.07;;;11.50;99.90;;;;;;5056947;28;20130;-55
2023/05/29 05:17:54;;;;;;;18.00;4.30;;;11.80;99.90;;;;;;5055074;28;20032;-55
2023/05/29 05:20:19;;;;;;;19.30;4.78;;;12.00;99.90;;;;;;5061988;28;20400;-55
2023/05/29 05:22:45;;;;;;;17.45;3.92;;;12.00;99.90;;;;;;5056123;28;20449;-55
2023/05/29 05:25:11;;;;;;;17.83;4.40;;;11.80;99.90;;;;;;5056808;28;20491;-55
2023/05/29 05:27:37;;;;;;;18.83;4.13;;;11.70;99.90;;;;;;5054567;28;20578;-55
2023/05/29 05:30:03;;;;;;;20.08;3.83;;;11.80;99.90;;;;;;5056810;28;20047;-56
2023/05/29 05:32:29;;;;;;;18.85;4.28;;;12.00;99.90;;;;;;5058933;28;20044;-55
2023/05/29 05:34:54;;;;;;;17.83;3.95;;;11.90;99.90;;;;;;5053547;28;20122;-55
2023/05/29 05:37:23;;;;;;;19.40;3.60;;;12.00;99.90;;;;;;5057434;28;20028;-55
2023/05/29 05:39:50;;;;;;;22.20;4.43;;;11.50;99.90;;;;;;5057687;28;20106;-55
2023/05/29 05:42:16;;;;;;;20.17;4.00;;;12.20;99.90;;;;;;5055925;28;20116;-55
2023/05/29 05:44:41;;;;;;;19.23;4.20;;;12.10;99.90;;;;;;5055882;28;20124;-55
2023/05/29 05:47:07;;;;;;;17.58;3.70;;;12.20;99.90;;;;;;5056685;28;20037;-55
2023/05/29 05:49:33;;;;;;;19.50;4.10;;;11.90;99.90;;;;;;5058665;28;20028;-56
2023/05/29 05:51:59;;;;;;;16.80;4.05;;;12.10;99.90;;;;;;5053711;28;20041;-55
2023/05/29 05:54:25;;;;;;;17.95;3.88;;;12.40;99.90;;;;;;5059283;28;20123;-55
2023/05/29 05:56:50;;;;;;;19.63;4.18;;;12.60;99.90;;;;;;5056353;28;20040;-55
2023/05/29 05:59:16;;;;;;;19.65;4.32;;;12.80;99.90;;;;;;5054159;28;20120;-55
2023/05/29 06:01:42;;;;;;;15.43;3.75;;;12.50;99.90;;;;;;5050719;28;20653;-55
2023/05/29 06:04:08;;;;;;;18.13;3.75;;;12.60;99.90;;;;;;5053894;28;20044;-55
2023/05/29 06:06:34;;;;;;;15.95;3.92;;;12.80;99.90;;;;;;5058350;28;20302;-55
2023/05/29 06:09:00;;;;;;;15.82;3.63;;;12.70;99.90;;;;;;5048365;28;20507;-55
2023/05/29 06:11:25;;;;;;;17.02;4.25;;;12.60;99.90;;;;;;5054329;28;20451;-55
2023/05/29 06:13:52;;;;;;;14.18;4.15;;;12.80;99.90;;;;;;5054657;28;20033;-55
2023/05/29 06:16:18;;;;;;;18.77;4.10;;;12.90;99.90;;;;;;5051703;28;20499;-55
2023/05/29 06:18:44;;;;;;;19.90;4.55;;;12.90;99.90;;;;;;5051642;28;20040;-55
2023/05/29 06:21:11;;;;;;;18.73;4.88;;;12.90;99.90;;;;;;5053903;28;20029;-55
2023/05/29 06:23:37;;;;;;;19.27;4.90;;;12.90;99.90;;;;;;5051583;28;20093;-55
2023/05/29 06:26:03;;;;;;;16.10;4.65;;;12.80;99.90;;;;;;5044035;28;20029;-55
2023/05/29 06:28:30;;;;;;;19.50;3.75;;;12.80;99.90;;;;;;5044764;28;20593;-55
2023/05/29 06:30:55;;;;;;;16.45;3.83;;;12.90;99.90;;;;;;5048011;28;20175;-55
2023/05/29 06:33:21;;;;;;;17.60;3.67;;;13.00;99.90;;;;;;5045653;28;20100;-55
2023/05/29 06:35:47;;;;;;;13.75;3.60;;;13.20;99.90;;;;;;5050756;28;20033;-55
2023/05/29 06:38:14;;;;;;;17.52;4.30;;;13.50;99.90;;;;;;5050600;28;20036;-55
2023/05/29 06:40:40;;;;;;;20.30;4.18;;;13.60;99.90;;;;;;5057495;28;20412;-55
2023/05/29 06:43:05;;;;;;;16.40;3.55;;;13.70;99.90;;;;;;5058785;28;20037;-55
2023/05/29 06:45:31;;;;;;;20.00;3.97;;;13.40;99.90;;;;;;5057922;28;20028;-55
2023/05/29 06:47:56;;;;;;;18.70;3.88;;;13.70;99.90;;;;;;5048647;28;20074;-54
2023/05/29 06:50:22;;;;;;;14.02;3.60;;;13.40;99.90;;;;;;5046183;28;20032;-55
2023/05/29 06:52:48;;;;;;;20.30;4.13;;;13.60;99.90;;;;;;5049536;28;20369;-55
2023/05/29 06:55:13;;;;;;;15.82;3.60;;;13.60;99.90;;;;;;5052513;28;20033;-55
2023/05/29 06:57:39;;;;;;;15.80;3.53;;;13.80;99.90;;;;;;5046251;28;20049;-55
2023/05/29 07:00:06;;;;;;;12.65;3.63;;;14.00;99.90;;;;;;5054888;28;20040;-55
2023/05/29 07:02:32;;;;;;;14.05;3.50;;;14.10;99.90;;;;;;5051228;28;20113;-55
2023/05/29 07:04:57;;;;;;;36.40;16.70;;;14.20;99.90;;;;;;5061078;28;20032;-55
2023/05/29 07:07:23;;;;;;;14.85;3.40;;;13.90;99.90;;;;;;5068438;28;20032;-56
2023/05/29 07:09:48;;;;;;;18.45;4.32;;;14.10;99.90;;;;;;5054344;28;20033;-55
2023/05/29 07:12:14;;;;;;;17.88;3.40;;;14.40;99.90;;;;;;5055722;28;20036;-58
2023/05/29 07:14:40;;;;;;;16.33;4.05;;;14.40;99.90;;;;;;5052441;28;20036;-55
2023/05/29 07:17:05;;;;;;;18.48;3.72;;;14.00;99.90;;;;;;5048302;28;20163;-55
2023/05/29 07:19:33;;;;;;;15.25;3.70;;;14.30;99.90;;;;;;5052738;28;20032;-55
2023/05/29 07:21:59;;;;;;;20.63;3.95;;;14.20;99.90;;;;;;5051456;28;20043;-55
2023/05/29 07:24:25;;;;;;;17.05;3.78;;;14.40;99.90;;;;;;5057247;28;20036;-55
2023/05/29 07:26:50;;;;;;;20.27;3.95;;;14.50;99.90;;;;;;5063492;28;20099;-56
2023/05/29 07:29:17;;;;;;;16.60;3.78;;;14.20;99.90;;;;;;5052715;28;20412;-56
2023/05/29 07:31:44;;;;;;;15.90;3.67;;;14.50;99.90;;;;;;5053065;28;20040;-55
2023/05/29 07:34:10;;;;;;;23.30;4.18;;;14.60;99.90;;;;;;5047884;28;20493;-55
2023/05/29 07:36:36;;;;;;;12.38;3.85;;;14.40;99.90;;;;;;5053417;28;22705;-56
2023/05/29 07:39:02;;;;;;;14.75;4.10;;;14.60;99.90;;;;;;5049730;28;20062;-57
2023/05/29 07:41:28;;;;;;;17.63;3.60;;;14.50;99.90;;;;;;5055342;28;20483;-56
2023/05/29 07:43:55;;;;;;;12.82;3.72;;;14.80;99.90;;;;;;5052859;28;20124;-56
2023/05/29 07:46:20;;;;;;;15.50;3.67;;;14.90;99.90;;;;;;5049000;28;20059;-55
2023/05/29 07:48:46;;;;;;;17.63;4.07;;;15.10;99.90;;;;;;5049061;28;20434;-56
2023/05/29 07:51:13;;;;;;;16.83;3.65;;;15.10;99.90;;;;;;5049088;28;20037;-56
2023/05/29 07:53:38;;;;;;;21.17;4.00;;;15.30;99.90;;;;;;5052079;28;20540;-56
2023/05/29 07:56:04;;;;;;;15.88;4.43;;;15.40;99.90;;;;;;5054460;28;20066;-56
2023/05/29 07:58:30;;;;;;;14.55;3.60;;;15.10;99.90;;;;;;5055544;28;20045;-56
2023/05/29 08:00:56;;;;;;;17.38;3.83;;;14.90;99.90;;;;;;5050502;28;20053;-56
2023/05/29 08:03:22;;;;;;;18.08;4.10;;;14.80;99.90;;;;;;5052235;28;20048;-56
2023/05/29 08:05:47;;;;;;;17.42;3.97;;;15.00;99.90;;;;;;5050768;28;20376;-56
2023/05/29 08:08:13;;;;;;;15.57;3.72;;;15.10;99.90;;;;;;5054988;28;20075;-66
2023/05/29 08:10:39;;;;;;;17.27;3.70;;;15.10;99.90;;;;;;5057743;28;20255;-65
2023/05/29 08:13:05;;;;;;;13.63;3.50;;;15.10;99.90;;;;;;5055490;28;20689;-64
2023/05/29 08:15:31;;;;;;;15.65;3.78;;;14.90;99.90;;;;;;5054307;28;20534;-64
2023/05/29 08:17:57;;;;;;;15.35;3.63;;;15.20;99.90;;;;;;5051847;28;20025;-65
2023/05/29 08:20:22;;;;;;;15.40;3.58;;;15.30;99.90;;;;;;5055417;28;20059;-65
2023/05/29 08:22:48;;;;;;;14.32;3.70;;;15.30;99.90;;;;;;5054203;28;20404;-66
2023/05/29 08:25:14;;;;;;;13.43;3.15;;;15.30;99.90;;;;;;5052329;28;20060;-64
2023/05/29 08:27:39;;;;;;;14.88;4.10;;;15.30;99.90;;;;;;5053521;28;21138;-65
2023/05/29 08:30:05;;;;;;;11.65;3.65;;;15.20;99.90;;;;;;5053100;28;20120;-64
2023/05/29 08:32:31;;;;;;;11.90;3.28;;;15.60;99.90;;;;;;5054955;28;20493;-65
2023/05/29 08:34:57;;;;;;;16.70;4.38;;;15.90;99.90;;;;;;5055596;28;20037;-66
2023/05/29 08:37:23;;;;;;;12.00;3.30;;;16.00;99.90;;;;;;5056909;28;20051;-64
2023/05/29 08:39:50;;;;;;;15.48;3.78;;;16.10;99.90;;;;;;5058537;28;20050;-66
2023/05/29 08:42:25;;;;;;;13.07;3.42;;;15.80;99.90;;;;;;5056869;28;20087;-64
2023/05/29 08:44:55;;;;;;;12.15;3.85;;;15.80;99.90;;;;;;5058725;28;20048;-65
2023/05/29 08:47:23;;;;;;;13.55;3.67;;;16.00;99.90;;;;;;5053217;28;20067;-66
2023/05/29 08:49:53;;;;;;;15.90;3.83;;;15.90;99.90;;;;;;5058456;28;20067;-66
2023/05/29 08:52:25;;;;;;;12.82;3.78;;;15.90;99.90;;;;;;5052702;28;20056;-64
2023/05/29 08:54:52;;;;;;;15.98;3.28;;;15.80;99.90;;;;;;5058675;28;20036;-65
2023/05/29 08:57:18;;;;;;;16.17;3.80;;;15.90;99.90;;;;;;5055617;28;20035;-64
2023/05/29 08:59:44;;;;;;;14.85;4.03;;;16.20;99.90;;;;;;5055315;28;20044;-66
2023/05/29 09:02:14;;;;;;;14.15;3.83;;;16.30;99.90;;;;;;5055002;28;20447;-64
2023/05/29 09:04:44;;;;;;;13.80;3.55;;;16.20;99.90;;;;;;5057585;28;20707;-66
2023/05/29 09:07:15;;;;;;;13.45;3.50;;;16.40;99.90;;;;;;5054847;28;20036;-64
2023/05/29 09:09:40;;;;;;;13.15;3.97;;;16.50;99.90;;;;;;5062817;28;20037;-65
2023/05/29 09:12:07;;;;;;;13.20;3.58;;;16.30;99.90;;;;;;5051619;28;20039;-65
2023/05/29 09:14:38;;;;;;;16.95;3.72;;;16.80;99.90;;;;;;5057338;28;20594;-66
2023/05/29 09:17:05;;;;;;;11.05;3.55;;;16.60;99.90;;;;;;5057061;28;20075;-64
2023/05/29 09:19:31;;;;;;;13.02;3.80;;;16.60;99.90;;;;;;5058516;28;20357;-65
2023/05/29 09:22:02;;;;;;;12.88;3.88;;;16.90;99.90;;;;;;5059202;28;20120;-65
2023/05/29 09:24:28;;;;;;;14.32;3.97;;;16.80;99.90;;;;;;5058491;28;20036;-65
2023/05/29 09:26:55;;;;;;;14.93;3.72;;;16.30;99.90;;;;;;5053963;28;20086;-66
2023/05/29 09:29:21;;;;;;;14.20;3.70;;;16.60;99.90;;;;;;5058583;28;20040;-66
2023/05/29 09:31:46;;;;;;;15.07;3.78;;;16.80;99.90;;;;;;5059539;28;20048;-65
2023/05/29 09:34:12;;;;;;;14.05;3.70;;;16.60;99.90;;;;;;5058334;28;20456;-64
2023/05/29 09:36:39;;;;;;;12.25;3.10;;;16.50;99.90;;;;;;5058126;28;20062;-66
2023/05/29 09:39:05;;;;;;;15.95;4.10;;;16.60;99.90;;;;;;5055480;28;20056;-64
2023/05/29 09:41:31;;;;;;;11.82;3.45;;;16.40;99.90;;;;;;5055530;28;20033;-65
2023/05/29 09:44:00;;;;;;;13.50;3.08;;;16.60;99.90;;;;;;5047209;28;20041;-66
2023/05/29 09:46:26;;;;;;;16.90;3.47;;;16.60;99.90;;;;;;5049953;28;20088;-66
2023/05/29 09:48:52;;;;;;;14.18;3.50;;;16.60;99.90;;;;;;5051997;28;20523;-65
2023/05/29 09:51:23;;;;;;;11.43;3.85;;;16.90;99.90;;;;;;5058393;28;20029;-65
2023/05/29 09:53:53;;;;;;;11.63;3.28;;;16.70;99.90;;;;;;5049601;28;20124;-66
2023/05/29 09:56:24;;;;;;;13.95;3.67;;;17.00;99.90;;;;;;5055444;28;20040;-64
2023/05/29 09:58:51;;;;;;;13.65;3.58;;;16.90;99.90;;;;;;5045179;28;20071;-66
2023/05/29 10:01:17;;;;;;;15.20;3.42;;;17.20;99.90;;;;;;5050402;28;20032;-65
2023/05/29 10:03:43;;;;;;;18.67;4.07;;;17.40;99.90;;;;;;5055345;28;20048;-66
2023/05/29 10:06:11;;;;;;;15.57;4.03;;;19.00;99.90;;;;;;5049193;28;20051;-65
2023/05/29 10:08:48;;;;;;;15.18;3.70;;;17.30;99.90;;;;;;5051579;28;20488;-56
2023/05/29 10:11:19;;;;;;;10.75;3.78;;;17.50;99.90;;;;;;5045519;28;20033;-57
2023/05/29 10:13:48;;;;;;;15.68;3.80;;;17.40;99.90;;;;;;5053112;28;20476;-56
2023/05/29 10:16:14;;;;;;;11.68;3.63;;;17.60;99.90;;;;;;5048984;28;20401;-57
2023/05/29 10:18:49;;;;;;;10.30;3.38;;;17.20;99.90;;;;;;5046963;28;20044;-56
2023/05/29 10:21:15;;;;;;;14.73;3.70;;;17.60;99.90;;;;;;5045461;28;20448;-57
2023/05/29 10:23:46;;;;;;;10.30;3.20;;;17.40;99.90;;;;;;5050561;28;20130;-57
2023/05/29 10:26:18;;;;;;;12.98;3.70;;;17.30;99.90;;;;;;5056206;28;20047;-56
2023/05/29 10:28:52;;;;;;;12.45;4.00;;;17.60;99.90;;;;;;5048302;28;20033;-56
2023/05/29 10:31:24;;;;;;;12.02;4.30;;;17.70;99.90;;;;;;5049324;28;20076;-56
2023/05/29 10:34:09;;;;;;;12.00;4.10;;;17.60;99.90;;;;;;5046911;28;20033;-57
2023/05/29 10:36:42;;;;;;;12.65;3.65;;;17.70;99.90;;;;;;5049215;28;20037;-56
2023/05/29 10:39:08;;;;;;;9.60;3.67;;;18.00;99.90;;;;;;5049918;28;20037;-57
2023/05/29 10:41:39;;;;;;;13.77;3.63;;;17.80;99.90;;;;;;5055645;28;20029;-56
2023/05/29 10:44:37;;;;;;;13.45;3.80;;;18.00;99.90;;;;;;5049800;28;20033;-56
2023/05/29 10:47:05;;;;;;;14.73;3.90;;;17.80;99.90;;;;;;5052750;28;20032;-57
2023/05/29 10:49:31;;;;;;;11.27;3.70;;;18.10;99.90;;;;;;5055845;28;20078;-56
2023/05/29 10:51:59;;;;;;;12.07;3.22;;;18.30;99.90;;;;;;5053799;28;20036;-57
2023/05/29 10:54:26;;;;;;;13.40;3.63;;;18.20;99.90;;;;;;5051107;28;20039;-56
2023/05/29 10:56:56;;;;;;;10.23;3.45;;;18.30;99.90;;;;;;5048938;28;20041;-57
2023/05/29 10:59:21;;;;;;;11.13;3.00;;;18.50;99.90;;;;;;5048233;28;20064;-56
2023/05/29 11:01:51;;;;;;;11.23;3.50;;;18.40;99.90;;;;;;5050855;28;20060;-57
2023/05/29 11:04:17;;;;;;;11.57;3.58;;;18.40;99.90;;;;;;5049089;28;20044;-56
2023/05/29 11:06:44;;;;;;;14.15;3.50;;;18.50;99.90;;;;;;5052461;28;20037;-56
2023/05/29 11:09:34;;;;;;;11.02;2.60;;;18.40;99.90;;;;;;5046247;28;20029;-57
2023/05/29 11:12:33;;;;;;;13.15;3.58;;;18.50;99.90;;;;;;5058441;28;20040;-57
2023/05/29 11:15:12;;;;;;;19.48;3.80;;;18.30;99.90;;;;;;5055616;28;20039;-57
2023/05/29 11:17:37;;;;;;;12.13;3.03;;;18.30;99.90;;;;;;5051057;28;20531;-56
2023/05/29 11:20:05;;;;;;;12.05;3.20;;;18.50;99.90;;;;;;5051063;28;20128;-57
2023/05/29 11:23:07;;;;;;;14.20;3.10;;;18.50;99.90;;;;;;5052073;28;20040;-57
2023/05/29 11:25:35;;;;;;;16.63;3.55;;;18.70;99.90;;;;;;5048750;28;20029;-57
2023/05/29 11:28:01;;;;;;;12.40;3.40;;;18.50;99.90;;;;;;5050263;28;20028;-57
2023/05/29 11:30:26;;;;;;;11.75;3.13;;;18.70;99.90;;;;;;5047741;28;20066;-57
2023/05/29 11:32:53;;;;;;;12.00;2.63;;;18.70;99.90;;;;;;5056287;28;20404;-56
2023/05/29 11:35:24;;;;;;;6.55;2.35;;;18.50;99.90;;;;;;5052662;28;20492;-57
2023/05/29 11:37:50;;;;;;;11.35;3.28;;;18.40;99.90;;;;;;5054365;28;20040;-57
2023/05/29 11:40:16;;;;;;;10.45;2.88;;;18.50;99.90;;;;;;5058920;28;20033;-57
2023/05/29 11:42:44;;;;;;;12.85;3.42;;;18.60;99.90;;;;;;5059635;28;20036;-57
2023/05/29 11:45:21;;;;;;;12.63;2.95;;;18.80;99.90;;;;;;5061423;28;20024;-57
2023/05/29 11:47:56;;;;;;;11.35;3.40;;;18.70;99.90;;;;;;5053290;28;20037;-57
2023/05/29 11:50:27;;;;;;;10.63;3.13;;;18.70;99.90;;;;;;5052386;28;20093;-56
2023/05/29 11:52:53;;;;;;;11.20;2.72;;;18.60;99.90;;;;;;5061243;28;20138;-57
2023/05/29 11:55:20;;;;;;;10.35;2.80;;;18.80;99.90;;;;;;5056155;28;20183;-57
2023/05/29 11:57:47;;;;;;;12.32;3.53;;;18.70;99.90;;;;;;5062879;28;20344;-58
2023/05/29 12:00:16;;;;;;;12.70;3.65;;;18.80;99.90;;;;;;5048714;28;20021;-58
2023/05/29 12:02:43;;;;;;;10.50;3.20;;;18.70;99.90;;;;;;5051720;28;20620;-57
2023/05/29 12:05:10;;;;;;;12.23;3.03;;;18.80;99.90;;;;;;5057277;28;20036;-58
2023/05/29 12:07:36;;;;;;;12.38;3.22;;;19.00;99.90;;;;;;5055114;28;20385;-58
2023/05/29 12:10:16;;;;;;;8.25;2.50;;;19.00;99.90;;;;;;5057634;28;20441;-59
2023/05/29 12:12:42;;;;;;;9.05;3.13;;;19.10;99.90;;;;;;5056812;28;20452;-58
2023/05/29 12:15:08;;;;;;;13.23;3.58;;;19.10;99.90;;;;;;5056903;28;20468;-57
2023/05/29 12:17:37;;;;;;;9.73;3.10;;;19.00;99.90;;;;;;5051735;28;20117;-58
2023/05/29 12:20:08;;;;;;;11.05;2.70;;;18.90;99.90;;;;;;5054129;28;20411;-58
2023/05/29 12:22:34;;;;;;;12.32;3.03;;;19.20;99.90;;;;;;5052296;28;20033;-57
2023/05/29 12:25:15;;;;;;;10.63;2.92;;;19.10;99.90;;;;;;5056262;28;20045;-58
2023/05/29 12:27:43;;;;;;;10.02;3.45;;;19.00;99.90;;;;;;5059559;28;20132;-57
2023/05/29 12:30:14;;;;;;;7.32;3.05;;;19.20;99.90;;;;;;5052313;28;20071;-58
2023/05/29 12:32:43;;;;;;;11.32;2.92;;;19.20;99.90;;;;;;5055640;28;20033;-58
2023/05/29 12:35:27;;;;;;;8.23;2.83;;;19.30;99.90;;;;;;5054300;28;20024;-58
2023/05/29 12:38:01;;;;;;;7.63;2.53;;;19.30;99.90;;;;;;5053996;28;20044;-58
2023/05/29 12:40:28;;;;;;;11.98;3.60;;;19.00;99.90;;;;;;5056051;28;20033;-58